sensor_id;sensor_type;location;lat;lon;timestamp;P1;durP1;ratioP1;P2;durP2;ratioP2
79361;SDS011;68830;47.566;19.012;2024-01-15T00:01:41;12.35;;;7.05;;
79361;SDS011;68830;47.566;19.012;2024-01-15T00:04:45;11.15;;;7.35;;
79361;SDS011;68830;47.566;19.012;2024-01-15T00:07:48;21.25;;;15.23;;
79361;SDS011;68830;47.566;19.012;2024-01-15T00:10:50;15.55;;;10.10;;
79361;SDS011;68830;47.566;19.012;2024-01-15T00:13:52;10.05;;;6.80;;
79361;SDS011;68830;47.566;19.012;2024-01-15T00:16:54;9.63;;;8.63;;
79361;SDS011;68830;47.566;19.012;2024-01-15T00:19:57;12.23;;;7.30;;
79361;SDS011;68830;47.566;19.012;2024-01-15T00:23:00;8.52;;;7.68;;
79361;SDS011;68830;47.566;19.012;2024-01-15T00:26:02;25.15;;;11.00;;
79361;SDS011;68830;47.566;19.012;2024-01-15T00:29:06;14.23;;;9.50;;
79361;SDS011;68830;47.566;19.012;2024-01-15T00:32:09;9.80;;;8.90;;
79361;SDS011;68830;47.566;19.012;2024-01-15T00:35:12;10.15;;;8.00;;
79361;SDS011;68830;47.566;19.012;2024-01-15T00:38:15;11.05;;;9.40;;
79361;SDS011;68830;47.566;19.012;2024-01-15T00:41:17;10.13;;;8.90;;
79361;SDS011;68830;47.566;19.012;2024-01-15T00:44:20;15.02;;;8.93;;
79361;SDS011;68830;47.566;19.012;2024-01-15T00:47:21;11.23;;;8.75;;
79361;SDS011;68830;47.566;19.012;2024-01-15T00:50:24;12.85;;;10.27;;
79361;SDS011;68830;47.566;19.012;2024-01-15T00:53:27;14.02;;;10.43;;
79361;SDS011;68830;47.566;19.012;2024-01-15T00:56:29;15.20;;;8.20;;
79361;SDS011;68830;47.566;19.012;2024-01-15T00:59:32;18.35;;;14.40;;
79361;SDS011;68830;47.566;19.012;2024-01-15T01:02:34;11.93;;;8.63;;
79361;SDS011;68830;47.566;19.012;2024-01-15T01:05:35;12.98;;;8.25;;
79361;SDS011;68830;47.566;19.012;2024-01-15T01:08:39;23.30;;;13.30;;
79361;SDS011;68830;47.566;19.012;2024-01-15T01:11:41;19.35;;;12.32;;
79361;SDS011;68830;47.566;19.012;2024-01-15T01:14:44;14.65;;;11.82;;
79361;SDS011;68830;47.566;19.012;2024-01-15T01:17:45;12.95;;;9.07;;
79361;SDS011;68830;47.566;19.012;2024-01-15T01:20:48;19.83;;;12.05;;
79361;SDS011;68830;47.566;19.012;2024-01-15T01:23:51;10.15;;;9.07;;
79361;SDS011;68830;47.566;19.012;2024-01-15T01:26:53;23.42;;;16.75;;
79361;SDS011;68830;47.566;19.012;2024-01-15T01:29:55;19.92;;;12.65;;
79361;SDS011;68830;47.566;19.012;2024-01-15T01:32:57;17.80;;;12.07;;
79361;SDS011;68830;47.566;19.012;2024-01-15T01:35:59;8.73;;;7.13;;
79361;SDS011;68830;47.566;19.012;2024-01-15T01:39:03;15.80;;;10.10;;
79361;SDS011;68830;47.566;19.012;2024-01-15T01:42:05;17.30;;;13.98;;
79361;SDS011;68830;47.566;19.012;2024-01-15T01:45:08;24.02;;;12.90;;
79361;SDS011;68830;47.566;19.012;2024-01-15T01:48:10;19.17;;;10.93;;
79361;SDS011;68830;47.566;19.012;2024-01-15T01:51:13;20.48;;;12.25;;
79361;SDS011;68830;47.566;19.012;2024-01-15T01:54:18;21.10;;;11.05;;
79361;SDS011;68830;47.566;19.012;2024-01-15T02:00:23;14.20;;;12.30;;
79361;SDS011;68830;47.566;19.012;2024-01-15T02:03:27;7.93;;;7.15;;
79361;SDS011;68830;47.566;19.012;2024-01-15T02:06:29;22.95;;;9.85;;
79361;SDS011;68830;47.566;19.012;2024-01-15T02:09:33;20.90;;;13.13;;
79361;SDS011;68830;47.566;19.012;2024-01-15T02:12:35;19.48;;;10.52;;
79361;SDS011;68830;47.566;19.012;2024-01-15T02:15:37;14.82;;;9.98;;
79361;SDS011;68830;47.566;19.012;2024-01-15T02:18:40;24.05;;;12.05;;
79361;SDS011;68830;47.566;19.012;2024-01-15T02:21:43;13.13;;;9.10;;
79361;SDS011;68830;47.566;19.012;2024-01-15T02:24:47;11.02;;;8.57;;
79361;SDS011;68830;47.566;19.012;2024-01-15T02:27:49;16.80;;;11.05;;
79361;SDS011;68830;47.566;19.012;2024-01-15T02:30:51;18.83;;;13.80;;
79361;SDS011;68830;47.566;19.012;2024-01-15T02:33:54;12.07;;;10.43;;
79361;SDS011;68830;47.566;19.012;2024-01-15T02:36:56;13.93;;;8.65;;
79361;SDS011;68830;47.566;19.012;2024-01-15T02:39:59;15.75;;;12.93;;
79361;SDS011;68830;47.566;19.012;2024-01-15T02:43:01;11.20;;;10.07;;
79361;SDS011;68830;47.566;19.012;2024-01-15T02:46:04;14.68;;;9.95;;
79361;SDS011;68830;47.566;19.012;2024-01-15T02:49:06;15.43;;;10.82;;
79361;SDS011;68830;47.566;19.012;2024-01-15T02:52:09;17.50;;;9.68;;
79361;SDS011;68830;47.566;19.012;2024-01-15T02:55:13;13.57;;;9.35;;
79361;SDS011;68830;47.566;19.012;2024-01-15T02:58:15;16.52;;;10.80;;
79361;SDS011;68830;47.566;19.012;2024-01-15T03:01:18;17.20;;;10.27;;
79361;SDS011;68830;47.566;19.012;2024-01-15T03:04:20;17.80;;;8.93;;
79361;SDS011;68830;47.566;19.012;2024-01-15T03:07:23;24.40;;;12.50;;
79361;SDS011;68830;47.566;19.012;2024-01-15T03:10:27;8.95;;;7.30;;
79361;SDS011;68830;47.566;19.012;2024-01-15T03:13:29;25.23;;;14.35;;
79361;SDS011;68830;47.566;19.012;2024-01-15T03:16:31;18.17;;;10.05;;
79361;SDS011;68830;47.566;19.012;2024-01-15T03:19:34;13.90;;;9.70;;
79361;SDS011;68830;47.566;19.012;2024-01-15T03:22:37;13.13;;;8.98;;
79361;SDS011;68830;47.566;19.012;2024-01-15T03:25:40;13.80;;;8.13;;
79361;SDS011;68830;47.566;19.012;2024-01-15T03:28:42;16.30;;;8.80;;
79361;SDS011;68830;47.566;19.012;2024-01-15T03:31:46;23.35;;;14.45;;
79361;SDS011;68830;47.566;19.012;2024-01-15T03:34:48;11.23;;;7.45;;
79361;SDS011;68830;47.566;19.012;2024-01-15T03:37:51;19.77;;;11.25;;
79361;SDS011;68830;47.566;19.012;2024-01-15T03:40:55;26.08;;;17.38;;
79361;SDS011;68830;47.566;19.012;2024-01-15T03:43:58;17.90;;;12.35;;
79361;SDS011;68830;47.566;19.012;2024-01-15T03:47:00;8.07;;;7.32;;
79361;SDS011;68830;47.566;19.012;2024-01-15T03:50:02;15.60;;;10.95;;
79361;SDS011;68830;47.566;19.012;2024-01-15T03:53:04;17.02;;;10.80;;
79361;SDS011;68830;47.566;19.012;2024-01-15T03:56:09;14.38;;;12.68;;
79361;SDS011;68830;47.566;19.012;2024-01-15T03:59:10;18.45;;;10.55;;
79361;SDS011;68830;47.566;19.012;2024-01-15T04:02:13;38.55;;;20.25;;
79361;SDS011;68830;47.566;19.012;2024-01-15T04:05:16;32.75;;;18.70;;
79361;SDS011;68830;47.566;19.012;2024-01-15T04:08:18;42.05;;;22.08;;
79361;SDS011;68830;47.566;19.012;2024-01-15T04:11:21;43.75;;;21.63;;
79361;SDS011;68830;47.566;19.012;2024-01-15T04:14:24;31.67;;;18.15;;
79361;SDS011;68830;47.566;19.012;2024-01-15T04:17:26;28.60;;;17.45;;
79361;SDS011;68830;47.566;19.012;2024-01-15T04:20:29;36.22;;;22.45;;
79361;SDS011;68830;47.566;19.012;2024-01-15T04:23:31;34.42;;;19.63;;
79361;SDS011;68830;47.566;19.012;2024-01-15T04:26:35;30.30;;;19.13;;
79361;SDS011;68830;47.566;19.012;2024-01-15T04:29:37;28.17;;;18.25;;
79361;SDS011;68830;47.566;19.012;2024-01-15T04:32:42;35.65;;;19.52;;
79361;SDS011;68830;47.566;19.012;2024-01-15T04:35:44;33.15;;;20.45;;
79361;SDS011;68830;47.566;19.012;2024-01-15T04:38:46;35.10;;;21.08;;
79361;SDS011;68830;47.566;19.012;2024-01-15T04:41:49;41.30;;;23.88;;
79361;SDS011;68830;47.566;19.012;2024-01-15T04:44:51;30.95;;;17.83;;
79361;SDS011;68830;47.566;19.012;2024-01-15T04:47:54;37.03;;;22.85;;
79361;SDS011;68830;47.566;19.012;2024-01-15T04:50:59;37.33;;;21.05;;
79361;SDS011;68830;47.566;19.012;2024-01-15T04:54:01;34.88;;;20.52;;
79361;SDS011;68830;47.566;19.012;2024-01-15T04:57:05;34.30;;;17.38;;
79361;SDS011;68830;47.566;19.012;2024-01-15T05:00:07;31.55;;;17.85;;
79361;SDS011;68830;47.566;19.012;2024-01-15T05:03:11;36.67;;;20.83;;
79361;SDS011;68830;47.566;19.012;2024-01-15T05:06:13;37.47;;;19.52;;
79361;SDS011;68830;47.566;19.012;2024-01-15T05:09:16;29.58;;;19.27;;
79361;SDS011;68830;47.566;19.012;2024-01-15T05:12:20;38.92;;;20.25;;
79361;SDS011;68830;47.566;19.012;2024-01-15T05:15:22;42.05;;;19.52;;
79361;SDS011;68830;47.566;19.012;2024-01-15T05:18:25;29.42;;;18.35;;
79361;SDS011;68830;47.566;19.012;2024-01-15T05:21:27;39.70;;;20.15;;
79361;SDS011;68830;47.566;19.012;2024-01-15T05:24:30;32.38;;;20.02;;
79361;SDS011;68830;47.566;19.012;2024-01-15T05:27:33;34.20;;;20.50;;
79361;SDS011;68830;47.566;19.012;2024-01-15T05:30:36;33.63;;;19.52;;
79361;SDS011;68830;47.566;19.012;2024-01-15T05:33:38;25.90;;;17.25;;
79361;SDS011;68830;47.566;19.012;2024-01-15T05:36:40;39.30;;;18.50;;
79361;SDS011;68830;47.566;19.012;2024-01-15T05:39:42;38.38;;;20.95;;
79361;SDS011;68830;47.566;19.012;2024-01-15T05:42:45;34.85;;;20.65;;
79361;SDS011;68830;47.566;19.012;2024-01-15T05:45:48;33.88;;;20.50;;
79361;SDS011;68830;47.566;19.012;2024-01-15T05:48:50;30.95;;;17.88;;
79361;SDS011;68830;47.566;19.012;2024-01-15T05:51:53;33.03;;;21.67;;
79361;SDS011;68830;47.566;19.012;2024-01-15T05:54:55;24.17;;;18.33;;
79361;SDS011;68830;47.566;19.012;2024-01-15T05:57:59;33.13;;;20.65;;
79361;SDS011;68830;47.566;19.012;2024-01-15T06:01:01;32.33;;;19.38;;
79361;SDS011;68830;47.566;19.012;2024-01-15T06:04:04;33.38;;;21.23;;
79361;SDS011;68830;47.566;19.012;2024-01-15T06:07:06;36.00;;;20.58;;
79361;SDS011;68830;47.566;19.012;2024-01-15T06:10:08;34.97;;;17.98;;
79361;SDS011;68830;47.566;19.012;2024-01-15T06:13:12;25.15;;;16.20;;
79361;SDS011;68830;47.566;19.012;2024-01-15T06:16:15;25.08;;;18.60;;
79361;SDS011;68830;47.566;19.012;2024-01-15T06:19:21;38.88;;;21.80;;
79361;SDS011;68830;47.566;19.012;2024-01-15T06:22:24;31.30;;;19.95;;
79361;SDS011;68830;47.566;19.012;2024-01-15T06:25:26;33.22;;;20.75;;
79361;SDS011;68830;47.566;19.012;2024-01-15T06:28:30;32.25;;;20.77;;
79361;SDS011;68830;47.566;19.012;2024-01-15T06:31:32;28.23;;;20.65;;
79361;SDS011;68830;47.566;19.012;2024-01-15T06:34:35;28.30;;;22.08;;
79361;SDS011;68830;47.566;19.012;2024-01-15T06:37:37;49.35;;;25.88;;
79361;SDS011;68830;47.566;19.012;2024-01-15T06:40:40;38.20;;;22.27;;
79361;SDS011;68830;47.566;19.012;2024-01-15T06:43:48;39.65;;;26.63;;
79361;SDS011;68830;47.566;19.012;2024-01-15T06:46:50;28.33;;;19.25;;
79361;SDS011;68830;47.566;19.012;2024-01-15T06:49:53;33.70;;;20.35;;
79361;SDS011;68830;47.566;19.012;2024-01-15T06:52:56;34.00;;;21.13;;
79361;SDS011;68830;47.566;19.012;2024-01-15T06:55:58;37.20;;;22.67;;
79361;SDS011;68830;47.566;19.012;2024-01-15T06:59:01;36.88;;;21.02;;
79361;SDS011;68830;47.566;19.012;2024-01-15T07:02:04;60.70;;;45.15;;
79361;SDS011;68830;47.566;19.012;2024-01-15T07:05:07;67.78;;;53.50;;
79361;SDS011;68830;47.566;19.012;2024-01-15T07:08:09;83.40;;;63.78;;
79361;SDS011;68830;47.566;19.012;2024-01-15T07:11:11;82.95;;;65.10;;
79361;SDS011;68830;47.566;19.012;2024-01-15T07:14:15;77.47;;;61.85;;
79361;SDS011;68830;47.566;19.012;2024-01-15T07:17:17;74.15;;;56.47;;
79361;SDS011;68830;47.566;19.012;2024-01-15T07:20:20;83.95;;;60.15;;
79361;SDS011;68830;47.566;19.012;2024-01-15T07:23:22;89.05;;;67.97;;
79361;SDS011;68830;47.566;19.012;2024-01-15T07:26:24;86.25;;;66.45;;
79361;SDS011;68830;47.566;19.012;2024-01-15T07:29:28;96.55;;;69.50;;
79361;SDS011;68830;47.566;19.012;2024-01-15T07:32:30;28.88;;;18.52;;
79361;SDS011;68830;47.566;19.012;2024-01-15T07:35:33;33.08;;;20.35;;
79361;SDS011;68830;47.566;19.012;2024-01-15T07:38:35;41.70;;;25.58;;
79361;SDS011;68830;47.566;19.012;2024-01-15T07:41:37;36.65;;;19.63;;
79361;SDS011;68830;47.566;19.012;2024-01-15T07:44:40;30.00;;;18.98;;
79361;SDS011;68830;47.566;19.012;2024-01-15T07:47:42;34.60;;;22.08;;
79361;SDS011;68830;47.566;19.012;2024-01-15T07:50:45;33.35;;;20.85;;
79361;SDS011;68830;47.566;19.012;2024-01-15T07:53:48;28.42;;;19.45;;
79361;SDS011;68830;47.566;19.012;2024-01-15T07:56:53;36.80;;;18.83;;
79361;SDS011;68830;47.566;19.012;2024-01-15T07:59:58;29.35;;;20.98;;
79361;SDS011;68830;47.566;19.012;2024-01-15T08:03:00;46.92;;;36.22;;
79361;SDS011;68830;47.566;19.012;2024-01-15T08:06:05;46.97;;;35.92;;
79361;SDS011;68830;47.566;19.012;2024-01-15T08:09:07;34.97;;;26.40;;
79361;SDS011;68830;47.566;19.012;2024-01-15T08:12:11;39.47;;;30.40;;
79361;SDS011;68830;47.566;19.012;2024-01-15T08:15:15;40.00;;;30.25;;
79361;SDS011;68830;47.566;19.012;2024-01-15T08:18:19;48.22;;;35.97;;
79361;SDS011;68830;47.566;19.012;2024-01-15T08:21:23;42.97;;;30.27;;
79361;SDS011;68830;47.566;19.012;2024-01-15T08:24:25;42.03;;;31.92;;
79361;SDS011;68830;47.566;19.012;2024-01-15T08:27:28;49.08;;;33.65;;
79361;SDS011;68830;47.566;19.012;2024-01-15T08:30:32;46.15;;;30.67;;
79361;SDS011;68830;47.566;19.012;2024-01-15T08:33:37;40.90;;;30.35;;
79361;SDS011;68830;47.566;19.012;2024-01-15T08:36:39;40.67;;;29.73;;
79361;SDS011;68830;47.566;19.012;2024-01-15T08:39:42;39.00;;;29.48;;
79361;SDS011;68830;47.566;19.012;2024-01-15T08:42:44;35.65;;;26.63;;
79361;SDS011;68830;47.566;19.012;2024-01-15T08:45:51;34.70;;;25.15;;
79361;SDS011;68830;47.566;19.012;2024-01-15T08:48:54;39.10;;;25.02;;
79361;SDS011;68830;47.566;19.012;2024-01-15T08:51:57;32.60;;;24.52;;
79361;SDS011;68830;47.566;19.012;2024-01-15T08:54:59;36.15;;;24.30;;
79361;SDS011;68830;47.566;19.012;2024-01-15T08:58:02;32.28;;;23.83;;
79361;SDS011;68830;47.566;19.012;2024-01-15T09:01:06;29.67;;;24.35;;
79361;SDS011;68830;47.566;19.012;2024-01-15T09:04:08;27.88;;;21.70;;
79361;SDS011;68830;47.566;19.012;2024-01-15T09:07:10;33.10;;;23.65;;
79361;SDS011;68830;47.566;19.012;2024-01-15T09:10:12;26.45;;;19.85;;
79361;SDS011;68830;47.566;19.012;2024-01-15T09:13:14;28.77;;;21.08;;
79361;SDS011;68830;47.566;19.012;2024-01-15T09:16:20;27.85;;;19.88;;
79361;SDS011;68830;47.566;19.012;2024-01-15T09:19:22;32.63;;;20.92;;
79361;SDS011;68830;47.566;19.012;2024-01-15T09:22:24;22.25;;;16.52;;
79361;SDS011;68830;47.566;19.012;2024-01-15T09:25:26;20.85;;;16.10;;
79361;SDS011;68830;47.566;19.012;2024-01-15T09:28:28;21.98;;;16.55;;
79361;SDS011;68830;47.566;19.012;2024-01-15T09:31:32;21.50;;;15.77;;
79361;SDS011;68830;47.566;19.012;2024-01-15T09:34:34;22.40;;;17.10;;
79361;SDS011;68830;47.566;19.012;2024-01-15T09:37:37;22.40;;;15.68;;
79361;SDS011;68830;47.566;19.012;2024-01-15T09:40:48;23.23;;;16.00;;
79361;SDS011;68830;47.566;19.012;2024-01-15T09:43:50;23.02;;;14.90;;
79361;SDS011;68830;47.566;19.012;2024-01-15T09:46:54;20.85;;;15.57;;
79361;SDS011;68830;47.566;19.012;2024-01-15T09:49:57;19.48;;;14.43;;
79361;SDS011;68830;47.566;19.012;2024-01-15T09:52:59;20.13;;;15.23;;
79361;SDS011;68830;47.566;19.012;2024-01-15T09:56:02;20.92;;;14.55;;
79361;SDS011;68830;47.566;19.012;2024-01-15T09:59:06;18.60;;;14.15;;
79361;SDS011;68830;47.566;19.012;2024-01-15T10:02:10;19.42;;;13.90;;
79361;SDS011;68830;47.566;19.012;2024-01-15T10:05:16;14.15;;;10.68;;
79361;SDS011;68830;47.566;19.012;2024-01-15T10:08:18;15.90;;;12.65;;
79361;SDS011;68830;47.566;19.012;2024-01-15T10:11:21;17.65;;;12.35;;
79361;SDS011;68830;47.566;19.012;2024-01-15T10:14:23;14.50;;;10.95;;
79361;SDS011;68830;47.566;19.012;2024-01-15T10:17:27;16.65;;;11.60;;
79361;SDS011;68830;47.566;19.012;2024-01-15T10:20:31;14.13;;;10.75;;
79361;SDS011;68830;47.566;19.012;2024-01-15T10:23:34;14.80;;;10.55;;
79361;SDS011;68830;47.566;19.012;2024-01-15T10:26:37;14.55;;;10.90;;
79361;SDS011;68830;47.566;19.012;2024-01-15T10:29:40;13.40;;;10.40;;
79361;SDS011;68830;47.566;19.012;2024-01-15T10:32:45;14.52;;;11.63;;
79361;SDS011;68830;47.566;19.012;2024-01-15T10:36:00;15.38;;;10.80;;
79361;SDS011;68830;47.566;19.012;2024-01-15T10:39:02;14.18;;;10.50;;
79361;SDS011;68830;47.566;19.012;2024-01-15T10:42:04;13.40;;;10.38;;
79361;SDS011;68830;47.566;19.012;2024-01-15T10:45:08;12.50;;;9.65;;
79361;SDS011;68830;47.566;19.012;2024-01-15T10:48:12;14.30;;;10.18;;
79361;SDS011;68830;47.566;19.012;2024-01-15T10:51:14;15.05;;;9.95;;
79361;SDS011;68830;47.566;19.012;2024-01-15T10:54:17;17.88;;;10.73;;
79361;SDS011;68830;47.566;19.012;2024-01-15T10:57:20;14.40;;;9.30;;
79361;SDS011;68830;47.566;19.012;2024-01-15T11:00:24;11.25;;;9.35;;
79361;SDS011;68830;47.566;19.012;2024-01-15T11:03:28;13.13;;;11.05;;
79361;SDS011;68830;47.566;19.012;2024-01-15T11:06:40;13.43;;;11.05;;
79361;SDS011;68830;47.566;19.012;2024-01-15T11:09:45;16.40;;;11.55;;
79361;SDS011;68830;47.566;19.012;2024-01-15T11:12:48;12.85;;;9.80;;
79361;SDS011;68830;47.566;19.012;2024-01-15T11:15:56;13.52;;;9.35;;
79361;SDS011;68830;47.566;19.012;2024-01-15T11:19:04;13.73;;;10.35;;
79361;SDS011;68830;47.566;19.012;2024-01-15T11:22:08;11.90;;;9.77;;
79361;SDS011;68830;47.566;19.012;2024-01-15T11:25:13;12.25;;;10.07;;
79361;SDS011;68830;47.566;19.012;2024-01-15T11:28:30;14.02;;;10.18;;
79361;SDS011;68830;47.566;19.012;2024-01-15T11:32:04;8.63;;;7.32;;
79361;SDS011;68830;47.566;19.012;2024-01-15T11:38:11;10.02;;;7.15;;
79361;SDS011;68830;47.566;19.012;2024-01-15T11:41:13;8.57;;;6.50;;
79361;SDS011;68830;47.566;19.012;2024-01-15T11:44:16;10.43;;;6.80;;
79361;SDS011;68830;47.566;19.012;2024-01-15T11:47:24;10.05;;;6.93;;
79361;SDS011;68830;47.566;19.012;2024-01-15T11:50:58;10.10;;;6.65;;
79361;SDS011;68830;47.566;19.012;2024-01-15T11:54:02;8.63;;;6.35;;
79361;SDS011;68830;47.566;19.012;2024-01-15T11:57:13;9.35;;;6.38;;
79361;SDS011;68830;47.566;19.012;2024-01-15T12:00:24;9.70;;;6.88;;
79361;SDS011;68830;47.566;19.012;2024-01-15T12:03:26;7.63;;;6.40;;
79361;SDS011;68830;47.566;19.012;2024-01-15T12:06:30;10.80;;;6.50;;
79361;SDS011;68830;47.566;19.012;2024-01-15T12:09:32;8.27;;;5.93;;
79361;SDS011;68830;47.566;19.012;2024-01-15T12:12:39;14.40;;;6.72;;
79361;SDS011;68830;47.566;19.012;2024-01-15T12:15:49;9.63;;;6.63;;
79361;SDS011;68830;47.566;19.012;2024-01-15T12:18:52;8.85;;;6.07;;
79361;SDS011;68830;47.566;19.012;2024-01-15T12:21:56;10.15;;;6.72;;
79361;SDS011;68830;47.566;19.012;2024-01-15T12:24:58;10.65;;;6.68;;
79361;SDS011;68830;47.566;19.012;2024-01-15T12:28:00;10.38;;;7.30;;
79361;SDS011;68830;47.566;19.012;2024-01-15T12:31:03;9.40;;;6.82;;
79361;SDS011;68830;47.566;19.012;2024-01-15T12:34:07;9.30;;;6.75;;
79361;SDS011;68830;47.566;19.012;2024-01-15T12:37:10;10.70;;;6.72;;
79361;SDS011;68830;47.566;19.012;2024-01-15T12:40:13;11.07;;;7.18;;
79361;SDS011;68830;47.566;19.012;2024-01-15T12:43:20;13.93;;;8.40;;
79361;SDS011;68830;47.566;19.012;2024-01-15T12:46:23;6.60;;;5.45;;
79361;SDS011;68830;47.566;19.012;2024-01-15T12:49:25;9.13;;;6.00;;
79361;SDS011;68830;47.566;19.012;2024-01-15T12:52:29;10.05;;;6.30;;
79361;SDS011;68830;47.566;19.012;2024-01-15T12:55:32;8.38;;;6.30;;
79361;SDS011;68830;47.566;19.012;2024-01-15T12:58:36;8.52;;;5.78;;
79361;SDS011;68830;47.566;19.012;2024-01-15T13:01:38;9.75;;;6.68;;
79361;SDS011;68830;47.566;19.012;2024-01-15T13:04:40;10.80;;;6.75;;
79361;SDS011;68830;47.566;19.012;2024-01-15T13:07:44;11.40;;;6.85;;
79361;SDS011;68830;47.566;19.012;2024-01-15T13:10:46;9.68;;;6.45;;
79361;SDS011;68830;47.566;19.012;2024-01-15T13:13:49;8.10;;;6.22;;
79361;SDS011;68830;47.566;19.012;2024-01-15T13:16:51;8.25;;;6.15;;
79361;SDS011;68830;47.566;19.012;2024-01-15T13:19:54;9.18;;;6.22;;
79361;SDS011;68830;47.566;19.012;2024-01-15T13:22:57;8.57;;;5.47;;
79361;SDS011;68830;47.566;19.012;2024-01-15T13:26:00;6.32;;;4.82;;
79361;SDS011;68830;47.566;19.012;2024-01-15T13:29:02;8.65;;;6.28;;
79361;SDS011;68830;47.566;19.012;2024-01-15T13:32:05;10.70;;;5.72;;
79361;SDS011;68830;47.566;19.012;2024-01-15T13:35:08;9.38;;;5.97;;
79361;SDS011;68830;47.566;19.012;2024-01-15T13:38:16;8.90;;;6.30;;
79361;SDS011;68830;47.566;19.012;2024-01-15T13:41:19;8.65;;;5.68;;
79361;SDS011;68830;47.566;19.012;2024-01-15T13:44:21;9.10;;;5.53;;
79361;SDS011;68830;47.566;19.012;2024-01-15T13:47:24;7.65;;;5.68;;
79361;SDS011;68830;47.566;19.012;2024-01-15T13:50:26;9.18;;;6.70;;
79361;SDS011;68830;47.566;19.012;2024-01-15T13:53:30;9.95;;;5.97;;
79361;SDS011;68830;47.566;19.012;2024-01-15T13:56:33;9.43;;;5.97;;
79361;SDS011;68830;47.566;19.012;2024-01-15T13:59:36;8.10;;;5.85;;
79361;SDS011;68830;47.566;19.012;2024-01-15T14:02:38;6.28;;;5.70;;
79361;SDS011;68830;47.566;19.012;2024-01-15T14:05:41;6.82;;;5.30;;
79361;SDS011;68830;47.566;19.012;2024-01-15T14:08:44;6.18;;;5.45;;
79361;SDS011;68830;47.566;19.012;2024-01-15T14:11:46;8.38;;;5.65;;
79361;SDS011;68830;47.566;19.012;2024-01-15T14:14:48;8.85;;;5.57;;
79361;SDS011;68830;47.566;19.012;2024-01-15T14:17:50;10.45;;;6.70;;
79361;SDS011;68830;47.566;19.012;2024-01-15T14:20:53;9.35;;;6.18;;
79361;SDS011;68830;47.566;19.012;2024-01-15T14:23:59;10.10;;;6.13;;
79361;SDS011;68830;47.566;19.012;2024-01-15T14:27:01;9.13;;;5.50;;
79361;SDS011;68830;47.566;19.012;2024-01-15T14:30:03;10.85;;;6.13;;
79361;SDS011;68830;47.566;19.012;2024-01-15T14:33:07;8.90;;;6.55;;
79361;SDS011;68830;47.566;19.012;2024-01-15T14:36:09;7.38;;;5.40;;
79361;SDS011;68830;47.566;19.012;2024-01-15T14:39:13;9.32;;;5.90;;
79361;SDS011;68830;47.566;19.012;2024-01-15T14:42:15;8.45;;;6.45;;
79361;SDS011;68830;47.566;19.012;2024-01-15T14:45:17;10.65;;;5.95;;
79361;SDS011;68830;47.566;19.012;2024-01-15T14:48:19;9.27;;;6.10;;
79361;SDS011;68830;47.566;19.012;2024-01-15T14:51:21;8.93;;;5.57;;
79361;SDS011;68830;47.566;19.012;2024-01-15T14:54:24;6.75;;;5.63;;
79361;SDS011;68830;47.566;19.012;2024-01-15T14:57:27;7.13;;;5.55;;
79361;SDS011;68830;47.566;19.012;2024-01-15T15:00:29;8.95;;;5.57;;
79361;SDS011;68830;47.566;19.012;2024-01-15T15:03:31;9.63;;;5.18;;
79361;SDS011;68830;47.566;19.012;2024-01-15T15:06:34;7.78;;;5.68;;
79361;SDS011;68830;47.566;19.012;2024-01-15T15:09:37;8.13;;;5.82;;
79361;SDS011;68830;47.566;19.012;2024-01-15T15:12:39;7.68;;;5.80;;
79361;SDS011;68830;47.566;19.012;2024-01-15T15:15:41;9.02;;;5.10;;
79361;SDS011;68830;47.566;19.012;2024-01-15T15:18:43;8.38;;;5.32;;
79361;SDS011;68830;47.566;19.012;2024-01-15T15:21:47;8.70;;;6.45;;
79361;SDS011;68830;47.566;19.012;2024-01-15T15:24:51;8.98;;;5.80;;
79361;SDS011;68830;47.566;19.012;2024-01-15T15:27:53;9.82;;;6.32;;
79361;SDS011;68830;47.566;19.012;2024-01-15T15:30:55;12.20;;;5.93;;
79361;SDS011;68830;47.566;19.012;2024-01-15T15:33:58;9.70;;;5.97;;
79361;SDS011;68830;47.566;19.012;2024-01-15T15:37:01;9.80;;;6.15;;
79361;SDS011;68830;47.566;19.012;2024-01-15T15:40:05;7.30;;;5.60;;
79361;SDS011;68830;47.566;19.012;2024-01-15T15:43:10;7.72;;;6.03;;
79361;SDS011;68830;47.566;19.012;2024-01-15T15:46:12;6.72;;;5.30;;
79361;SDS011;68830;47.566;19.012;2024-01-15T15:49:14;7.65;;;5.72;;
79361;SDS011;68830;47.566;19.012;2024-01-15T15:52:17;10.05;;;5.90;;
79361;SDS011;68830;47.566;19.012;2024-01-15T15:55:20;10.70;;;5.93;;
79361;SDS011;68830;47.566;19.012;2024-01-15T15:58:22;10.95;;;5.97;;
79361;SDS011;68830;47.566;19.012;2024-01-15T16:01:24;10.18;;;5.70;;
79361;SDS011;68830;47.566;19.012;2024-01-15T16:04:26;8.85;;;5.78;;
79361;SDS011;68830;47.566;19.012;2024-01-15T16:07:28;11.30;;;6.10;;
79361;SDS011;68830;47.566;19.012;2024-01-15T16:10:31;9.88;;;6.07;;
79361;SDS011;68830;47.566;19.012;2024-01-15T16:13:33;9.07;;;5.57;;
79361;SDS011;68830;47.566;19.012;2024-01-15T16:16:35;7.85;;;6.75;;
79361;SDS011;68830;47.566;19.012;2024-01-15T16:19:57;7.03;;;5.75;;
79361;SDS011;68830;47.566;19.012;2024-01-15T16:23:19;10.02;;;5.80;;
79361;SDS011;68830;47.566;19.012;2024-01-15T16:26:42;8.07;;;6.28;;
79361;SDS011;68830;47.566;19.012;2024-01-15T16:29:45;9.93;;;6.82;;
79361;SDS011;68830;47.566;19.012;2024-01-15T16:32:47;9.57;;;6.53;;
79361;SDS011;68830;47.566;19.012;2024-01-15T16:35:50;12.80;;;6.13;;
79361;SDS011;68830;47.566;19.012;2024-01-15T16:38:52;9.98;;;6.38;;
79361;SDS011;68830;47.566;19.012;2024-01-15T16:41:56;9.80;;;5.85;;
79361;SDS011;68830;47.566;19.012;2024-01-15T16:44:57;8.70;;;5.43;;
79361;SDS011;68830;47.566;19.012;2024-01-15T16:47:59;8.55;;;5.63;;
79361;SDS011;68830;47.566;19.012;2024-01-15T16:51:02;7.60;;;5.72;;
79361;SDS011;68830;47.566;19.012;2024-01-15T16:54:04;8.15;;;5.97;;
79361;SDS011;68830;47.566;19.012;2024-01-15T16:57:07;6.82;;;5.25;;
79361;SDS011;68830;47.566;19.012;2024-01-15T17:00:10;7.55;;;5.47;;
79361;SDS011;68830;47.566;19.012;2024-01-15T17:03:12;8.23;;;5.65;;
79361;SDS011;68830;47.566;19.012;2024-01-15T17:06:14;6.63;;;5.05;;
79361;SDS011;68830;47.566;19.012;2024-01-15T17:09:17;8.95;;;5.32;;
79361;SDS011;68830;47.566;19.012;2024-01-15T17:12:20;7.88;;;5.38;;
79361;SDS011;68830;47.566;19.012;2024-01-15T17:15:22;10.00;;;5.18;;
79361;SDS011;68830;47.566;19.012;2024-01-15T17:18:24;7.57;;;5.70;;
79361;SDS011;68830;47.566;19.012;2024-01-15T17:21:26;5.57;;;4.82;;
79361;SDS011;68830;47.566;19.012;2024-01-15T17:24:28;5.65;;;4.80;;
79361;SDS011;68830;47.566;19.012;2024-01-15T17:27:31;10.93;;;5.85;;
79361;SDS011;68830;47.566;19.012;2024-01-15T17:30:33;5.65;;;5.15;;
79361;SDS011;68830;47.566;19.012;2024-01-15T17:33:35;5.10;;;4.57;;
79361;SDS011;68830;47.566;19.012;2024-01-15T17:36:38;8.38;;;5.65;;
79361;SDS011;68830;47.566;19.012;2024-01-15T17:39:40;7.53;;;5.60;;
79361;SDS011;68830;47.566;19.012;2024-01-15T17:42:45;7.80;;;5.70;;
79361;SDS011;68830;47.566;19.012;2024-01-15T17:45:48;6.68;;;5.65;;
79361;SDS011;68830;47.566;19.012;2024-01-15T17:48:50;7.63;;;5.88;;
79361;SDS011;68830;47.566;19.012;2024-01-15T17:51:52;6.10;;;5.25;;
79361;SDS011;68830;47.566;19.012;2024-01-15T17:54:55;7.55;;;5.95;;